createdAt,value
2018-04-14T00:00:00.708Z,84.63
2018-04-14T00:02:27.644Z,94.20
2018-04-14T00:04:54.569Z,104.83
2018-04-14T00:07:21.490Z,88.00
2018-04-14T00:09:48.379Z,89.77
2018-04-14T00:12:15.300Z,99.47
2018-04-14T00:14:42.989Z,95.10
2018-04-14T00:17:09.886Z,99.47
2018-04-14T00:19:36.861Z,84.53
2018-04-14T00:22:04.540Z,86.03
2018-04-14T00:24:31.416Z,84.83
2018-04-14T00:26:58.656Z,89.53
2018-04-14T00:29:25.542Z,88.63
2018-04-14T00:31:52.441Z,78.70
2018-04-14T00:34:19.392Z,87.37
2018-04-14T00:36:46.264Z,79.50
2018-04-14T00:39:13.432Z,85.43
2018-04-14T00:41:40.329Z,81.53
2018-04-14T00:44:07.278Z,84.87
2018-04-14T00:46:34.335Z,82.93
2018-04-14T00:49:01.207Z,89.23
2018-04-14T00:51:28.067Z,85.57
2018-04-14T00:53:56.025Z,79.27
2018-04-14T00:56:22.992Z,85.73
2018-04-14T00:58:50.615Z,88.60
2018-04-14T01:01:17.581Z,83.47
2018-04-14T01:03:44.802Z,87.93
2018-04-14T01:06:11.715Z,75.33
2018-04-14T01:08:38.584Z,46.90
2018-04-14T01:11:05.522Z,85.37
2018-04-14T01:13:32.392Z,76.97
2018-04-14T01:15:59.457Z,90.43
2018-04-14T01:18:26.316Z,93.53
2018-04-14T01:20:53.189Z,92.70
2018-04-14T01:23:20.182Z,105.03
2018-04-14T01:25:47.102Z,86.00
2018-04-14T01:28:14.060Z,92.57
2018-04-14T01:30:41.260Z,85.03
2018-04-14T01:33:08.201Z,95.50
2018-04-14T01:35:35.177Z,88.70
2018-04-14T01:38:02.836Z,90.57
2018-04-14T01:40:30.498Z,88.50
2018-04-14T01:42:58.160Z,89.63
2018-04-14T01:45:25.941Z,78.87
2018-04-14T01:47:52.920Z,81.47
2018-04-14T01:50:19.800Z,89.03
2018-04-14T01:52:46.764Z,89.40
2018-04-14T01:55:14.443Z,83.50
2018-04-14T01:57:41.356Z,73.43
2018-04-14T02:00:08.992Z,67.60
2018-04-14T02:02:35.921Z,73.50
2018-04-14T02:05:02.944Z,73.20
2018-04-14T02:07:29.907Z,81.40
2018-04-14T02:09:56.847Z,77.03
2018-04-14T02:12:23.829Z,75.57
2018-04-14T02:14:51.495Z,76.17
2018-04-14T02:17:18.425Z,80.33
2018-04-14T02:19:45.367Z,73.83
2018-04-14T02:22:12.619Z,82.53
2018-04-14T02:24:39.505Z,75.40
2018-04-14T02:27:06.391Z,74.23
2018-04-14T02:29:33.298Z,80.00
2018-04-14T02:32:00.229Z,69.93
2018-04-14T02:34:27.566Z,70.30
2018-04-14T02:36:54.462Z,67.03
2018-04-14T02:39:22.069Z,63.83
2018-04-14T02:41:49.021Z,57.30
2018-04-14T02:44:16.077Z,63.97
2018-04-14T02:46:42.984Z,63.27
2018-04-14T02:49:09.859Z,60.37
2018-04-14T02:51:36.812Z,64.00
2018-04-14T02:54:03.767Z,57.50
2018-04-14T02:56:30.840Z,63.63
2018-04-14T02:58:57.724Z,63.47
2018-04-14T03:01:24.614Z,65.43
2018-04-14T03:03:51.526Z,68.07
2018-04-14T03:06:18.457Z,62.23
2018-04-14T03:08:45.426Z,70.27
2018-04-14T03:11:12.301Z,62.97
2018-04-14T03:13:39.292Z,64.57
2018-04-14T03:16:06.229Z,56.80
2018-04-14T03:18:34.184Z,58.70
2018-04-14T03:21:01.797Z,53.63
2018-04-14T03:23:29.460Z,56.13
2018-04-14T03:25:56.374Z,51.13
2018-04-14T03:28:23.257Z,52.33
2018-04-14T03:30:50.180Z,56.03
2018-04-14T03:33:17.064Z,53.73
2018-04-14T03:35:44.034Z,51.03
2018-04-14T03:38:11.945Z,46.87
2018-04-14T03:40:38.877Z,46.00
2018-04-14T03:43:05.772Z,45.73
2018-04-14T03:45:32.763Z,46.57
2018-04-14T03:47:59.649Z,40.70
2018-04-14T03:50:26.617Z,39.13
2018-04-14T03:52:53.676Z,42.30
2018-04-14T03:55:22.183Z,40.57
2018-04-14T03:57:49.077Z,40.87
2018-04-14T04:00:15.961Z,36.40
2018-04-14T04:02:43.728Z,33.43
2018-04-14T04:05:10.711Z,31.10
2018-04-14T04:07:37.626Z,32.43
2018-04-14T04:10:05.308Z,34.53
2018-04-14T04:12:32.215Z,25.50
2018-04-14T04:14:59.137Z,23.80
2018-04-14T04:17:26.213Z,25.30
2018-04-14T04:20:12.094Z,24.50
2018-04-14T04:22:57.144Z,25.17
2018-04-14T04:25:41.689Z,22.07
2018-04-14T04:28:08.864Z,26.47
2018-04-14T04:30:35.759Z,23.90
2018-04-14T04:33:03.421Z,28.43
2018-04-14T04:35:31.093Z,31.13
2018-04-14T04:37:57.976Z,33.00
2018-04-14T04:40:24.860Z,30.30
2018-04-14T04:42:51.771Z,31.90
2018-04-14T04:45:18.784Z,37.07
2018-04-14T04:47:45.740Z,33.80
2018-04-14T04:50:12.621Z,31.60
2018-04-14T04:52:39.540Z,37.30
2018-04-14T04:55:06.421Z,39.93
2018-04-14T04:57:33.319Z,37.23
2018-04-14T05:00:00.287Z,30.57
2018-04-14T05:02:27.258Z,29.63
2018-04-14T05:04:54.241Z,25.00
2018-04-14T05:07:21.161Z,26.67
2018-04-14T05:09:48.080Z,27.57
2018-04-14T05:12:15.817Z,23.43
2018-04-14T05:14:42.745Z,26.97
2018-04-14T05:17:09.665Z,25.37
2018-04-14T05:19:36.982Z,25.30
2018-04-14T05:22:03.886Z,23.10
2018-04-14T05:24:30.905Z,24.70
2018-04-14T05:26:57.795Z,28.67
2018-04-14T05:29:24.972Z,25.63
2018-04-14T05:31:51.929Z,32.37
2018-04-14T05:34:18.800Z,28.47
2018-04-14T05:36:45.884Z,24.70
2018-04-14T05:39:12.768Z,24.47
2018-04-14T05:41:39.687Z,20.53
2018-04-14T05:44:06.672Z,18.73
2018-04-14T05:46:33.600Z,21.93
2018-04-14T05:49:00.663Z,23.63
2018-04-14T05:51:27.634Z,27.40
2018-04-14T05:53:54.516Z,23.10
2018-04-14T05:56:21.443Z,26.80
2018-04-14T05:58:49.068Z,24.57
2018-04-14T06:01:16.000Z,26.57
2018-04-14T06:03:42.941Z,27.57
2018-04-14T06:06:09.912Z,30.73
2018-04-14T06:08:36.793Z,34.83
2018-04-14T06:11:03.702Z,26.67
2018-04-14T06:13:30.704Z,29.20
2018-04-14T06:15:57.639Z,30.33
2018-04-14T06:18:24.552Z,33.23
2018-04-14T06:20:51.593Z,35.20
2018-04-14T06:23:18.620Z,29.17
2018-04-14T06:25:45.507Z,28.17
2018-04-14T06:28:13.226Z,33.53
2018-04-14T06:30:40.093Z,33.00
2018-04-14T06:33:07.281Z,36.03
2018-04-14T06:35:34.892Z,40.13
2018-04-14T06:38:01.789Z,32.53
2018-04-14T06:40:29.753Z,40.53
2018-04-14T06:42:57.433Z,41.17
2018-04-14T06:45:24.400Z,36.97
2018-04-14T06:47:51.369Z,42.17
2018-04-14T06:50:18.378Z,41.00
2018-04-14T06:52:45.334Z,40.13
2018-04-14T06:55:12.300Z,41.93
2018-04-14T06:57:39.207Z,37.90
2018-04-14T07:00:06.864Z,36.80
2018-04-14T07:02:34.541Z,42.83
2018-04-14T07:05:01.506Z,46.20
2018-04-14T07:07:28.381Z,42.03
2018-04-14T07:09:55.441Z,47.73
2018-04-14T07:12:23.864Z,40.63
2018-04-14T07:14:56.981Z,35.93
2018-04-14T07:17:23.930Z,34.53
2018-04-14T07:19:51.282Z,29.93
2018-04-14T07:22:18.576Z,30.93
2018-04-14T07:24:46.221Z,27.60
2018-04-14T07:27:13.137Z,27.47
2018-04-14T07:29:40.009Z,30.63
2018-04-14T07:32:06.929Z,30.87
2018-04-14T07:34:33.857Z,37.33
2018-04-14T07:37:00.791Z,35.23
2018-04-14T07:39:28.465Z,33.97
2018-04-14T07:41:55.334Z,35.63
2018-04-14T07:44:22.304Z,38.67
2018-04-14T07:46:50.443Z,37.67
2018-04-14T07:49:18.250Z,36.43
2018-04-14T07:51:46.060Z,36.47
2018-04-14T07:54:12.987Z,31.40
2018-04-14T07:56:39.909Z,33.27
2018-04-14T07:59:06.805Z,29.60
2018-04-14T08:01:33.731Z,32.50
2018-04-14T08:04:00.882Z,31.93
2018-04-14T08:06:28.081Z,34.73
2018-04-14T08:08:55.156Z,30.23
2018-04-14T08:11:22.108Z,32.17
2018-04-14T08:13:49.028Z,31.07
2018-04-14T08:16:15.925Z,32.33
2018-04-14T08:18:42.853Z,36.20
2018-04-14T08:21:09.806Z,32.40
2018-04-14T08:23:36.734Z,33.13
2018-04-14T08:26:03.686Z,29.33
2018-04-14T08:28:30.579Z,33.50
2018-04-14T08:30:57.536Z,27.00
2018-04-14T08:33:24.471Z,30.70
2018-04-14T08:35:51.412Z,35.33
2018-04-14T08:38:18.304Z,36.33
2018-04-14T08:40:45.280Z,37.40
2018-04-14T08:43:12.961Z,34.90
2018-04-14T08:45:41.197Z,34.17
2018-04-14T08:48:08.118Z,36.57
2018-04-14T08:50:35.083Z,36.63
2018-04-14T08:53:02.806Z,36.23
2018-04-14T08:55:30.554Z,40.63
2018-04-14T08:57:58.416Z,36.40
2018-04-14T09:00:26.040Z,37.97
2018-04-14T09:02:52.913Z,38.30
2018-04-14T09:05:19.990Z,41.40
2018-04-14T09:07:47.610Z,36.73
2018-04-14T09:10:14.501Z,37.23
2018-04-14T09:12:41.435Z,40.57
2018-04-14T09:15:14.451Z,42.97
2018-04-14T09:17:41.391Z,45.20
2018-04-14T09:20:08.337Z,40.40
2018-04-14T09:22:35.266Z,38.87
2018-04-14T09:25:02.251Z,41.40
2018-04-14T09:27:29.153Z,44.53
2018-04-14T09:29:56.822Z,45.53
2018-04-14T09:32:24.457Z,45.27
2018-04-14T09:34:51.415Z,45.40
2018-04-14T09:37:19.054Z,43.10
2018-04-14T09:39:46.297Z,42.97
2018-04-14T09:42:13.214Z,48.33
2018-04-14T09:44:40.089Z,45.00
2018-04-14T09:47:07.039Z,45.23
2018-04-14T09:49:33.974Z,44.00
2018-04-14T09:52:00.984Z,47.63
2018-04-14T09:54:27.900Z,42.00
2018-04-14T09:56:54.844Z,47.23
2018-04-14T09:59:21.767Z,42.90
2018-04-14T10:01:50.655Z,45.77
2018-04-14T10:04:17.655Z,50.27
2018-04-14T10:06:45.286Z,47.97
2018-04-14T10:09:12.214Z,48.20
2018-04-14T10:11:39.083Z,42.77
2018-04-14T10:14:06.006Z,54.33
2018-04-14T10:16:33.168Z,47.37
2018-04-14T10:19:00.092Z,54.90
2018-04-14T10:21:26.974Z,47.90
2018-04-14T10:23:53.940Z,52.70
2018-04-14T10:26:21.558Z,59.07
2018-04-14T10:28:48.474Z,58.23
2018-04-14T10:31:15.396Z,63.87
2018-04-14T10:33:43.058Z,65.80
2018-04-14T10:36:10.683Z,54.80
2018-04-14T10:38:37.617Z,59.40
2018-04-14T10:41:04.548Z,57.83
2018-04-14T10:43:31.415Z,62.50
2018-04-14T10:45:58.353Z,66.63
2018-04-14T10:48:25.234Z,67.57
2018-04-14T10:50:52.208Z,69.00
2018-04-14T10:53:19.153Z,70.63
2018-04-14T10:55:46.181Z,66.80
2018-04-14T10:58:16.009Z,61.07
2018-04-14T11:00:42.948Z,69.57
2018-04-14T11:03:09.856Z,65.77
2018-04-14T11:05:36.837Z,72.07
2018-04-14T11:08:04.476Z,68.87
2018-04-14T11:10:31.402Z,62.97
2018-04-14T11:12:58.332Z,69.87
2018-04-14T11:15:25.266Z,65.73
2018-04-14T11:17:52.201Z,67.03
2018-04-14T11:20:19.949Z,67.23
2018-04-14T11:22:47.574Z,66.30
2018-04-14T11:25:14.575Z,71.80
2018-04-14T11:27:42.207Z,63.67
2018-04-14T11:30:09.146Z,63.93
2018-04-14T11:32:36.065Z,64.27
2018-04-14T11:35:03.023Z,59.63
2018-04-14T11:37:29.951Z,67.03
2018-04-14T11:39:56.891Z,61.20
2018-04-14T11:42:23.785Z,56.30
2018-04-14T11:44:50.745Z,60.17
2018-04-14T11:47:18.368Z,59.42
2018-04-14T11:49:45.348Z,60.30
2018-04-14T11:52:13.033Z,59.90
2018-04-14T11:54:40.998Z,62.10
2018-04-14T11:57:09.485Z,64.33
2018-04-14T11:59:37.199Z,63.73
2018-04-14T12:02:04.191Z,61.00
2018-04-14T12:04:31.862Z,57.40
2018-04-14T12:06:59.472Z,62.23
2018-04-14T12:09:26.542Z,57.63
2018-04-14T12:11:54.210Z,56.87
2018-04-14T12:14:21.108Z,60.97
2018-04-14T12:16:48.036Z,67.47
2018-04-14T12:19:16.052Z,59.50
2018-04-14T12:21:43.002Z,64.73
2018-04-14T12:24:09.911Z,83.87
2018-04-14T12:26:39.354Z,61.27
2018-04-14T12:29:06.282Z,66.67
2018-04-14T12:31:33.211Z,66.10
2018-04-14T12:34:00.188Z,60.07
2018-04-14T12:36:27.130Z,63.30
2018-04-14T12:38:54.045Z,65.97
2018-04-14T12:41:20.991Z,61.30
2018-04-14T12:43:47.876Z,62.47
2018-04-14T12:46:14.792Z,57.40
2018-04-14T12:48:41.657Z,62.07
2018-04-14T12:51:08.624Z,60.03
2018-04-14T12:53:35.496Z,64.00
2018-04-14T12:56:03.129Z,58.53
2018-04-14T12:58:30.086Z,59.53
2018-04-14T13:00:57.040Z,58.80
2018-04-14T13:03:23.982Z,56.80
2018-04-14T13:05:50.921Z,61.73
2018-04-14T13:08:17.799Z,60.63
2018-04-14T13:10:45.461Z,61.30
2018-04-14T13:13:13.090Z,61.00
2018-04-14T13:15:40.011Z,57.57
2018-04-14T13:18:06.925Z,51.20
2018-04-14T13:20:34.212Z,58.20
2018-04-14T13:23:01.075Z,54.63
2018-04-14T13:25:28.063Z,56.10
2018-04-14T13:27:55.785Z,47.40
2018-04-14T13:30:22.659Z,52.77
2018-04-14T13:32:51.261Z,59.07
2018-04-14T13:35:18.919Z,56.63
2018-04-14T13:37:46.529Z,53.80
2018-04-14T13:40:13.416Z,52.60
2018-04-14T13:42:40.335Z,52.43
2018-04-14T13:45:07.221Z,59.57
2018-04-14T13:47:34.933Z,56.73
2018-04-14T13:50:02.430Z,52.73
2018-04-14T13:52:30.136Z,56.10
2018-04-14T13:54:57.029Z,48.20
2018-04-14T13:57:23.968Z,52.17
2018-04-14T13:59:50.845Z,46.03
2018-04-14T14:02:20.405Z,43.43
2018-04-14T14:04:47.281Z,46.00
2018-04-14T14:07:14.285Z,48.03
2018-04-14T14:09:41.144Z,42.67
2018-04-14T14:12:08.220Z,42.93
2018-04-14T14:14:35.916Z,40.47
2018-04-14T14:17:02.936Z,40.00
2018-04-14T14:19:30.688Z,42.40
2018-04-14T14:21:57.580Z,43.70
2018-04-14T14:24:24.567Z,44.73
2018-04-14T14:26:51.453Z,45.77
2018-04-14T14:29:18.432Z,50.80
2018-04-14T14:31:45.305Z,49.27
2018-04-14T14:34:12.283Z,45.77
2018-04-14T14:36:39.900Z,49.27
2018-04-14T14:39:06.818Z,45.57
2018-04-14T14:41:33.689Z,49.97
2018-04-14T14:44:00.617Z,48.20
2018-04-14T14:46:27.598Z,48.47
2018-04-14T14:48:54.528Z,49.03
2018-04-14T14:51:21.492Z,47.00
2018-04-14T14:53:48.413Z,46.37
2018-04-14T14:56:15.730Z,51.80
2018-04-14T14:58:43.434Z,46.63
2018-04-14T15:01:10.732Z,49.00
2018-04-14T15:03:37.751Z,48.40
2018-04-14T15:06:06.443Z,48.17
2018-04-14T15:08:33.380Z,48.00
2018-04-14T15:11:00.265Z,48.90
2018-04-14T15:13:27.184Z,42.70
2018-04-14T15:15:54.145Z,45.67
2018-04-14T15:18:21.064Z,43.93
2018-04-14T15:20:48.024Z,48.80
2018-04-14T15:23:14.951Z,41.13
2018-04-14T15:25:42.012Z,43.00
2018-04-14T15:28:08.957Z,48.13
2018-04-14T15:30:35.873Z,45.90
2018-04-14T15:33:02.774Z,46.53
2018-04-14T15:35:29.692Z,46.63
2018-04-14T15:37:56.567Z,46.43
2018-04-14T15:40:23.484Z,60.53
2018-04-14T15:42:50.378Z,45.10
2018-04-14T15:45:19.395Z,47.07
2018-04-14T15:47:46.622Z,44.23
2018-04-14T15:50:14.589Z,44.67
2018-04-14T15:52:42.269Z,42.27
2018-04-14T15:55:09.271Z,45.93
2018-04-14T15:57:36.363Z,44.40
2018-04-14T16:00:04.931Z,46.97
2018-04-14T16:02:33.568Z,47.30
2018-04-14T16:05:00.494Z,41.17
2018-04-14T16:07:27.424Z,48.50
2018-04-14T16:09:54.360Z,45.57
2018-04-14T16:12:21.999Z,44.93
2018-04-14T16:14:53.798Z,47.77
2018-04-14T16:17:21.418Z,44.70
2018-04-14T16:19:48.334Z,43.73
2018-04-14T16:22:15.347Z,48.13
2018-04-14T16:24:43.034Z,45.37
2018-04-14T16:27:10.092Z,40.37
2018-04-14T16:29:36.978Z,41.47
2018-04-14T16:32:03.972Z,44.63
2018-04-14T16:34:30.865Z,45.73
2018-04-14T16:36:58.445Z,38.07
2018-04-14T16:39:25.475Z,41.50
2018-04-14T16:41:52.530Z,40.97
2018-04-14T16:44:20.129Z,44.37
2018-04-14T16:46:47.786Z,41.20
2018-04-14T16:49:15.443Z,41.33
2018-04-14T16:51:45.335Z,39.50
2018-04-14T16:54:12.215Z,40.60
2018-04-14T16:56:39.890Z,43.77
2018-04-14T16:59:06.823Z,39.70
2018-04-14T17:01:34.524Z,42.23
2018-04-14T17:04:01.569Z,41.83
2018-04-14T17:06:28.503Z,42.33
2018-04-14T17:08:55.436Z,42.63
2018-04-14T17:11:23.148Z,46.67
2018-04-14T17:13:50.018Z,39.97
2018-04-14T17:16:17.007Z,42.73
2018-04-14T17:18:43.876Z,44.73
2018-04-14T17:21:10.846Z,43.80
2018-04-14T17:23:37.826Z,41.20
2018-04-14T17:26:04.797Z,43.30
2018-04-14T17:28:32.325Z,40.83
2018-04-14T17:30:59.985Z,42.57
2018-04-14T17:33:27.201Z,44.07
2018-04-14T17:35:54.134Z,43.47
2018-04-14T17:38:21.063Z,42.83
2018-04-14T17:40:47.953Z,44.40
2018-04-14T17:43:14.857Z,44.37
2018-04-14T17:45:41.732Z,46.30
2018-04-14T17:48:09.380Z,42.43
2018-04-14T17:50:36.257Z,43.00
2018-04-14T17:53:03.230Z,45.03
2018-04-14T17:55:30.845Z,45.93
2018-04-14T17:57:57.755Z,42.93
2018-04-14T18:00:24.667Z,46.20
2018-04-14T18:02:51.626Z,49.20
2018-04-14T18:05:19.240Z,50.90
2018-04-14T18:07:46.175Z,51.73
2018-04-14T18:10:13.904Z,51.30
2018-04-14T18:12:41.683Z,51.50
2018-04-14T18:15:08.551Z,51.43
2018-04-14T18:17:35.565Z,49.27
2018-04-14T18:20:02.600Z,51.53
2018-04-14T18:22:29.564Z,52.97
2018-04-14T18:24:58.099Z,57.10
2018-04-14T18:27:24.976Z,53.43
2018-04-14T18:29:53.013Z,55.43
2018-04-14T18:32:19.877Z,52.90
2018-04-14T18:34:46.787Z,62.70
2018-04-14T18:37:13.753Z,58.40
2018-04-14T18:39:40.840Z,54.10
2018-04-14T18:42:07.766Z,59.70
2018-04-14T18:44:34.722Z,56.17
2018-04-14T18:47:01.652Z,57.23
2018-04-14T18:49:28.655Z,54.77
2018-04-14T18:51:55.734Z,56.93
2018-04-14T18:54:22.656Z,55.80
2018-04-14T18:56:49.580Z,56.00
2018-04-14T18:59:17.240Z,58.50
2018-04-14T19:01:44.144Z,55.27
2018-04-14T19:04:11.135Z,57.13
2018-04-14T19:06:38.759Z,57.23
2018-04-14T19:09:05.742Z,57.50
2018-04-14T19:11:33.440Z,54.20
2018-04-14T19:14:00.345Z,56.40
2018-04-14T19:16:27.960Z,56.57
2018-04-14T19:18:55.050Z,57.77
2018-04-14T19:21:22.021Z,57.60
2018-04-14T19:23:49.624Z,57.20
2018-04-14T19:26:16.700Z,55.93
2018-04-14T19:28:43.834Z,56.73
2018-04-14T19:31:10.723Z,61.50
2018-04-14T19:33:37.640Z,57.97
2018-04-14T19:36:05.991Z,58.47
2018-04-14T19:38:33.448Z,56.40
2018-04-14T19:41:00.420Z,59.87
2018-04-14T19:43:28.024Z,58.37
2018-04-14T19:45:54.936Z,65.40
2018-04-14T19:48:22.103Z,61.50
2018-04-14T19:50:49.858Z,56.40
2018-04-14T19:53:16.742Z,62.57
2018-04-14T19:55:43.750Z,55.23
2018-04-14T19:58:10.702Z,56.07
2018-04-14T20:00:37.698Z,62.33
2018-04-14T20:03:04.613Z,57.27
2018-04-14T20:05:32.292Z,58.17
2018-04-14T20:07:59.236Z,53.83
2018-04-14T20:10:26.185Z,58.33
2018-04-14T20:12:53.058Z,58.23
2018-04-14T20:15:20.026Z,59.57
2018-04-14T20:17:46.897Z,55.03
2018-04-14T20:20:14.557Z,61.20
2018-04-14T20:22:41.526Z,55.03
2018-04-14T20:25:08.635Z,56.00
2018-04-14T20:27:35.504Z,59.97
2018-04-14T20:30:03.198Z,55.17
2018-04-14T20:32:30.105Z,57.40
2018-04-14T20:34:57.278Z,60.20
2018-04-14T20:37:24.898Z,55.30
2018-04-14T20:39:51.819Z,58.90
2018-04-14T20:42:18.727Z,57.93
2018-04-14T20:44:46.587Z,57.40
2018-04-14T20:47:14.183Z,57.00
2018-04-14T20:49:41.056Z,64.47
2018-04-14T20:52:07.967Z,66.00
2018-04-14T20:54:34.869Z,66.13
2018-04-14T20:57:01.776Z,66.53
2018-04-14T20:59:29.029Z,62.47
2018-04-14T21:01:56.698Z,62.27
2018-04-14T21:04:23.627Z,67.50
2018-04-14T21:06:50.876Z,62.97
2018-04-14T21:09:17.805Z,59.77
2018-04-14T21:11:44.725Z,61.03
2018-04-14T21:14:11.605Z,62.40
2018-04-14T21:16:38.564Z,57.10
2018-04-14T21:19:05.454Z,65.17
2018-04-14T21:21:32.354Z,65.97
2018-04-14T21:23:59.303Z,61.67
2018-04-14T21:26:26.413Z,63.70
2018-04-14T21:28:53.343Z,63.13
2018-04-14T21:31:20.279Z,65.27
2018-04-14T21:33:47.216Z,67.97
2018-04-14T21:36:14.148Z,67.37
2018-04-14T21:38:41.068Z,61.23
2018-04-14T21:41:08.741Z,62.17
2018-04-14T21:43:35.607Z,58.30
2018-04-14T21:46:02.543Z,66.17
2018-04-14T21:48:29.518Z,64.43
2018-04-14T21:50:56.488Z,60.23
2018-04-14T21:53:23.513Z,62.07
2018-04-14T21:55:50.441Z,61.33
2018-04-14T21:58:17.306Z,62.67
2018-04-14T22:00:44.243Z,64.47
2018-04-14T22:03:11.107Z,62.17
2018-04-14T22:05:38.049Z,60.90
2018-04-14T22:08:04.945Z,63.40
2018-04-14T22:10:31.832Z,65.27
2018-04-14T22:12:58.745Z,68.83
2018-04-14T22:15:25.828Z,66.90
2018-04-14T22:17:53.595Z,66.67
2018-04-14T22:20:20.471Z,70.57
2018-04-14T22:22:48.321Z,71.97
2018-04-14T22:25:15.249Z,64.37
2018-04-14T22:27:42.111Z,70.30
2018-04-14T22:30:09.041Z,61.97
2018-04-14T22:32:35.973Z,66.20
2018-04-14T22:35:02.943Z,72.77
2018-04-14T22:37:29.845Z,67.17
2018-04-14T22:39:56.763Z,66.50
2018-04-14T22:42:24.661Z,65.57
2018-04-14T22:44:51.578Z,70.57
2018-04-14T22:47:19.184Z,69.07
2018-04-14T22:49:46.154Z,73.70
2018-04-14T22:52:13.021Z,69.00
2018-04-14T22:54:40.675Z,69.53
2018-04-14T22:57:07.544Z,70.90
2018-04-14T22:59:35.307Z,72.10
2018-04-14T23:02:02.940Z,71.77
2018-04-14T23:04:29.909Z,76.17
2018-04-14T23:06:57.569Z,76.37
2018-04-14T23:09:25.272Z,72.40
2018-04-14T23:11:52.243Z,75.17
2018-04-14T23:14:19.232Z,71.17
2018-04-14T23:16:46.854Z,76.00
2018-04-14T23:19:13.905Z,69.97
2018-04-14T23:21:40.777Z,68.73
2018-04-14T23:24:07.894Z,79.53
2018-04-14T23:26:35.652Z,79.53
2018-04-14T23:29:02.566Z,83.30
2018-04-14T23:31:30.175Z,73.07
2018-04-14T23:33:58.118Z,76.60
2018-04-14T23:36:24.988Z,79.23
2018-04-14T23:38:51.902Z,76.13
2018-04-14T23:41:18.829Z,70.80
2018-04-14T23:43:46.527Z,68.47
2018-04-14T23:46:13.396Z,71.07
2018-04-14T23:48:40.298Z,72.17
2018-04-14T23:51:07.185Z,72.27
2018-04-14T23:53:34.109Z,73.77
2018-04-14T23:56:01.076Z,71.57
2018-04-14T23:58:28.166Z,71.60
